JTC232 KBUR-KBOI
Flight info
| Callsign | JTC232 |
|---|---|
| Flight time | 1h 25m |
| Altitude | 43000 |
| Route | OROSZ2 CSTRO FRA RYANN/N0505F410 PRNCS SADYL4 |
| Aircraft | C750/M-SBDE3FGHRWXY/S |
Departure
| Time | 2026-05-04 00:04 |
|---|---|
| Airport | Hollywood Burbank/Bob Hope Airport (KBUR) |
Arrival
| Time | 2026-05-04 01:29 |
|---|---|
| Airport | Boise Air Terminal/Gowen Field (KBOI) |
| Time | Latitude | Longitude | Altitude | Speed | Heading |
|---|---|---|---|---|---|
| 2026-05-03 23:49 | 34.19994 | -118.36329 | 706 ft | 0 kts | 2° |
| 2026-05-03 23:57 | 34.19999 | -118.36329 | 698 ft | 2 kts | 2° |
| 2026-05-03 23:58 | 34.20005 | -118.36329 | 693 ft | 3 kts | 352° |
| 2026-05-03 23:58 | 34.20015 | -118.36342 | 699 ft | 2 kts | 295° |
| 2026-05-03 23:58 | 34.20017 | -118.36370 | 703 ft | 7 kts | 268° |
| 2026-05-03 23:58 | 34.20018 | -118.36426 | 706 ft | 6 kts | 275° |
| 2026-05-03 23:59 | 34.20009 | -118.36453 | 704 ft | 0 kts | 213° |
| 2026-05-03 23:59 | 34.20000 | -118.36454 | 705 ft | 4 kts | 183° |
| 2026-05-03 23:59 | 34.19952 | -118.36454 | 707 ft | 10 kts | 180° |
| 2026-05-03 23:59 | 34.19908 | -118.36487 | 706 ft | 9 kts | 262° |
| 2026-05-04 00:00 | 34.19910 | -118.36584 | 712 ft | 12 kts | 271° |
| 2026-05-04 00:00 | 34.19911 | -118.36693 | 715 ft | 14 kts | 271° |
| 2026-05-04 00:00 | 34.19913 | -118.36793 | 719 ft | 10 kts | 271° |
| 2026-05-04 00:00 | 34.19913 | -118.36852 | 722 ft | 5 kts | 271° |
| 2026-05-04 00:01 | 34.19901 | -118.36889 | 723 ft | 5 kts | 226° |
| 2026-05-04 00:01 | 34.19877 | -118.36902 | 725 ft | 1 kts | 189° |
| 2026-05-04 00:02 | 34.19875 | -118.36902 | 725 ft | 3 kts | 189° |
| 2026-05-04 00:03 | 34.19816 | -118.36904 | 725 ft | 10 kts | 181° |
| 2026-05-04 00:03 | 34.19791 | -118.36871 | 723 ft | 0 kts | 89° |
| 2026-05-04 00:03 | 34.19787 | -118.36566 | 714 ft | 94 kts | 91° |
| 2026-05-04 00:03 | 34.19768 | -118.35471 | 933 ft | 148 kts | 95° |
| 2026-05-04 00:04 | 34.19651 | -118.34134 | 1303 ft | 174 kts | 112° |
| 2026-05-04 00:04 | 34.18695 | -118.33124 | 1553 ft | 204 kts | 164° |
| 2026-05-04 00:04 | 34.17311 | -118.33437 | 2218 ft | 208 kts | 212° |
| 2026-05-04 00:04 | 34.16235 | -118.34580 | 3098 ft | 207 kts | 223° |
| 2026-05-04 00:05 | 34.15189 | -118.35746 | 3836 ft | 199 kts | 221° |
| 2026-05-04 00:05 | 34.14124 | -118.37006 | 4184 ft | 234 kts | 230° |
| 2026-05-04 00:05 | 34.13562 | -118.38969 | 3973 ft | 263 kts | 268° |
| 2026-05-04 00:05 | 34.14032 | -118.41185 | 4622 ft | 274 kts | 296° |
| 2026-05-04 00:06 | 34.15229 | -118.42896 | 5776 ft | 274 kts | 319° |
| 2026-05-04 00:06 | 34.16763 | -118.44300 | 6705 ft | 280 kts | 322° |
| 2026-05-04 00:06 | 34.18365 | -118.45682 | 7671 ft | 285 kts | 321° |
| 2026-05-04 00:06 | 34.19971 | -118.47100 | 8781 ft | 287 kts | 320° |
| 2026-05-04 00:07 | 34.21585 | -118.48552 | 9788 ft | 292 kts | 319° |
| 2026-05-04 00:07 | 34.23250 | -118.50045 | 10417 ft | 308 kts | 319° |
| 2026-05-04 00:07 | 34.25051 | -118.51656 | 10626 ft | 335 kts | 320° |
| 2026-05-04 00:07 | 34.27005 | -118.53397 | 10804 ft | 360 kts | 320° |
| 2026-05-04 00:08 | 34.29023 | -118.55189 | 11632 ft | 360 kts | 320° |
| 2026-05-04 00:08 | 34.31052 | -118.57001 | 12384 ft | 365 kts | 320° |
| 2026-05-04 00:08 | 34.33102 | -118.58840 | 13120 ft | 369 kts | 320° |
| 2026-05-04 00:08 | 34.35179 | -118.60701 | 13773 ft | 373 kts | 320° |
| 2026-05-04 00:09 | 34.37272 | -118.62574 | 14433 ft | 376 kts | 319° |
| 2026-05-04 00:09 | 34.39350 | -118.64433 | 15161 ft | 376 kts | 319° |
| 2026-05-04 00:09 | 34.41483 | -118.66291 | 15744 ft | 383 kts | 323° |
| 2026-05-04 00:09 | 34.43969 | -118.67579 | 16413 ft | 393 kts | 339° |
| 2026-05-04 00:10 | 34.46670 | -118.68222 | 17125 ft | 399 kts | 347° |
| 2026-05-04 00:10 | 34.49422 | -118.68736 | 17825 ft | 402 kts | 347° |
| 2026-05-04 00:10 | 34.52213 | -118.69265 | 18492 ft | 406 kts | 346° |
| 2026-05-04 00:10 | 34.55004 | -118.69820 | 19119 ft | 410 kts | 345° |
| 2026-05-04 00:11 | 34.57835 | -118.70384 | 19743 ft | 415 kts | 344° |
| 2026-05-04 00:11 | 34.60698 | -118.70940 | 20402 ft | 419 kts | 344° |
| 2026-05-04 00:11 | 34.63592 | -118.71498 | 21126 ft | 422 kts | 343° |
| 2026-05-04 00:11 | 34.66502 | -118.72071 | 21726 ft | 427 kts | 342° |
| 2026-05-04 00:12 | 34.69442 | -118.72684 | 22328 ft | 428 kts | 339° |
| 2026-05-04 00:12 | 34.72269 | -118.73708 | 22960 ft | 421 kts | 329° |
| 2026-05-04 00:12 | 34.74911 | -118.75168 | 23635 ft | 413 kts | 321° |
| 2026-05-04 00:12 | 34.77411 | -118.76895 | 24198 ft | 414 kts | 319° |
| 2026-05-04 00:13 | 34.79932 | -118.78619 | 24800 ft | 417 kts | 320° |
| 2026-05-04 00:13 | 34.82438 | -118.80320 | 25374 ft | 418 kts | 320° |
| 2026-05-04 00:13 | 34.84979 | -118.82065 | 25913 ft | 421 kts | 319° |
| 2026-05-04 00:13 | 34.87533 | -118.83833 | 26471 ft | 423 kts | 319° |
| 2026-05-04 00:14 | 34.90105 | -118.85605 | 27039 ft | 426 kts | 319° |
| 2026-05-04 00:14 | 34.92698 | -118.87384 | 27536 ft | 429 kts | 319° |
| 2026-05-04 00:14 | 34.95306 | -118.89176 | 28131 ft | 431 kts | 319° |
| 2026-05-04 00:14 | 34.97919 | -118.90980 | 28676 ft | 433 kts | 319° |
| 2026-05-04 00:15 | 35.00550 | -118.92799 | 29230 ft | 436 kts | 319° |
| 2026-05-04 00:15 | 35.03202 | -118.94630 | 29718 ft | 439 kts | 319° |
| 2026-05-04 00:15 | 35.05870 | -118.96470 | 30201 ft | 442 kts | 319° |
| 2026-05-04 00:15 | 35.08556 | -118.98328 | 30600 ft | 445 kts | 319° |
| 2026-05-04 00:16 | 35.11256 | -119.00199 | 31036 ft | 447 kts | 319° |
| 2026-05-04 00:16 | 35.13952 | -119.02059 | 31664 ft | 444 kts | 319° |
| 2026-05-04 00:16 | 35.16637 | -119.03917 | 32221 ft | 443 kts | 318° |
| 2026-05-04 00:16 | 35.19318 | -119.05782 | 32819 ft | 442 kts | 318° |
| 2026-05-04 00:17 | 35.21994 | -119.07643 | 33352 ft | 443 kts | 318° |
| 2026-05-04 00:17 | 35.24678 | -119.09506 | 33897 ft | 443 kts | 318° |
| 2026-05-04 00:17 | 35.27358 | -119.11365 | 34391 ft | 443 kts | 319° |
| 2026-05-04 00:17 | 35.29995 | -119.13202 | 34883 ft | 442 kts | 319° |
| 2026-05-04 00:18 | 35.32673 | -119.15067 | 35378 ft | 442 kts | 319° |
| 2026-05-04 00:18 | 35.35346 | -119.16930 | 35884 ft | 442 kts | 319° |
| 2026-05-04 00:18 | 35.38014 | -119.18789 | 36413 ft | 441 kts | 319° |
| 2026-05-04 00:18 | 35.40677 | -119.20648 | 36937 ft | 441 kts | 319° |
| 2026-05-04 00:19 | 35.43424 | -119.22383 | 37429 ft | 450 kts | 326° |
| 2026-05-04 00:19 | 35.46403 | -119.23696 | 37978 ft | 460 kts | 333° |
| 2026-05-04 00:19 | 35.49560 | -119.24550 | 38547 ft | 468 kts | 340° |
| 2026-05-04 00:19 | 35.52773 | -119.25215 | 39021 ft | 468 kts | 340° |
| 2026-05-04 00:20 | 35.55977 | -119.25902 | 39444 ft | 468 kts | 340° |
| 2026-05-04 00:20 | 35.59186 | -119.26601 | 39921 ft | 468 kts | 340° |
| 2026-05-04 00:20 | 35.62400 | -119.27288 | 40374 ft | 469 kts | 340° |
| 2026-05-04 00:20 | 35.65615 | -119.27967 | 40805 ft | 469 kts | 340° |
| 2026-05-04 00:21 | 35.68835 | -119.28656 | 41237 ft | 470 kts | 341° |
| 2026-05-04 00:21 | 35.72055 | -119.29350 | 41667 ft | 470 kts | 341° |
| 2026-05-04 00:21 | 35.75281 | -119.30042 | 42085 ft | 471 kts | 341° |
| 2026-05-04 00:21 | 35.78512 | -119.30733 | 42506 ft | 471 kts | 341° |
| 2026-05-04 00:22 | 35.81750 | -119.31428 | 42906 ft | 473 kts | 341° |
| 2026-05-04 00:22 | 35.85020 | -119.32138 | 42897 ft | 482 kts | 341° |
| 2026-05-04 00:22 | 35.91762 | -119.33588 | 42922 ft | 500 kts | 342° |
| 2026-05-04 00:23 | 35.98726 | -119.35087 | 42926 ft | 515 kts | 342° |
| 2026-05-04 00:23 | 36.05832 | -119.36618 | 42918 ft | 520 kts | 342° |
| 2026-05-04 00:24 | 36.12961 | -119.38159 | 42910 ft | 520 kts | 342° |
| 2026-05-04 00:24 | 36.20094 | -119.39706 | 42928 ft | 520 kts | 342° |
| 2026-05-04 00:25 | 36.27236 | -119.41256 | 42894 ft | 521 kts | 342° |
| 2026-05-04 00:25 | 36.34379 | -119.42810 | 42900 ft | 521 kts | 342° |
| 2026-05-04 00:26 | 36.41480 | -119.44359 | 42925 ft | 522 kts | 342° |
| 2026-05-04 00:26 | 36.48674 | -119.45929 | 42902 ft | 522 kts | 343° |
| 2026-05-04 00:27 | 36.55823 | -119.47493 | 42901 ft | 521 kts | 343° |
| 2026-05-04 00:27 | 36.62928 | -119.49051 | 42904 ft | 522 kts | 343° |
| 2026-05-04 00:28 | 36.70077 | -119.50620 | 42907 ft | 521 kts | 343° |
| 2026-05-04 00:28 | 36.77221 | -119.52193 | 42900 ft | 521 kts | 343° |
| 2026-05-04 00:29 | 36.84370 | -119.53768 | 42903 ft | 521 kts | 343° |
| 2026-05-04 00:29 | 36.91519 | -119.55348 | 42912 ft | 522 kts | 343° |
| 2026-05-04 00:30 | 36.98670 | -119.56929 | 42908 ft | 522 kts | 343° |
| 2026-05-04 00:30 | 37.05815 | -119.58515 | 42911 ft | 520 kts | 344° |
| 2026-05-04 00:31 | 37.11845 | -119.59266 | 42911 ft | 531 kts | 355° |
| 2026-05-04 00:31 | 37.19258 | -119.58277 | 42938 ft | 537 kts | 2° |
| 2026-05-04 00:32 | 37.26663 | -119.57184 | 42941 ft | 533 kts | 0° |
| 2026-05-04 00:32 | 37.34052 | -119.56148 | 42942 ft | 535 kts | 2° |
| 2026-05-04 00:33 | 37.45142 | -119.54533 | 42953 ft | 534 kts | 1° |
| 2026-05-04 00:34 | 37.52512 | -119.53438 | 42946 ft | 533 kts | 2° |
| 2026-05-04 00:34 | 37.59824 | -119.52382 | 42951 ft | 532 kts | 2° |
| 2026-05-04 00:35 | 37.67186 | -119.51301 | 42959 ft | 532 kts | 2° |
| 2026-05-04 00:35 | 37.74519 | -119.50228 | 42967 ft | 530 kts | 2° |
| 2026-05-04 00:36 | 37.81853 | -119.49152 | 42971 ft | 530 kts | 2° |
| 2026-05-04 00:36 | 37.89187 | -119.48072 | 42942 ft | 529 kts | 2° |
| 2026-05-04 00:37 | 37.96495 | -119.46996 | 42948 ft | 529 kts | 2° |
| 2026-05-04 00:37 | 38.03805 | -119.45916 | 42948 ft | 528 kts | 2° |
| 2026-05-04 00:38 | 38.11114 | -119.44836 | 42945 ft | 527 kts | 3° |
| 2026-05-04 00:38 | 38.18401 | -119.43755 | 42941 ft | 526 kts | 3° |
| 2026-05-04 00:39 | 38.25636 | -119.42680 | 42943 ft | 526 kts | 3° |
| 2026-05-04 00:39 | 38.32915 | -119.41596 | 42946 ft | 525 kts | 3° |
| 2026-05-04 00:40 | 38.40188 | -119.40512 | 42947 ft | 526 kts | 3° |
| 2026-05-04 00:40 | 38.47460 | -119.39425 | 42946 ft | 526 kts | 3° |
| 2026-05-04 00:41 | 38.54723 | -119.38337 | 42942 ft | 525 kts | 4° |
| 2026-05-04 00:41 | 38.61938 | -119.37254 | 42949 ft | 525 kts | 4° |
| 2026-05-04 00:42 | 38.69200 | -119.36162 | 42917 ft | 525 kts | 4° |
| 2026-05-04 00:42 | 38.76465 | -119.35068 | 42939 ft | 525 kts | 4° |
| 2026-05-04 00:43 | 38.83729 | -119.33970 | 42937 ft | 525 kts | 4° |
| 2026-05-04 00:43 | 38.90988 | -119.32873 | 42939 ft | 525 kts | 4° |
| 2026-05-04 00:44 | 38.98250 | -119.31771 | 42936 ft | 525 kts | 4° |
| 2026-05-04 00:44 | 39.05513 | -119.30668 | 42933 ft | 525 kts | 4° |
| 2026-05-04 00:45 | 39.12725 | -119.29570 | 42936 ft | 525 kts | 4° |
| 2026-05-04 00:45 | 39.19993 | -119.28464 | 42926 ft | 526 kts | 3° |
| 2026-05-04 00:46 | 39.27158 | -119.26433 | 42913 ft | 531 kts | 15° |
| 2026-05-04 00:46 | 39.34105 | -119.23204 | 42882 ft | 527 kts | 17° |
| 2026-05-04 00:47 | 39.41076 | -119.20297 | 42877 ft | 525 kts | 16° |
| 2026-05-04 00:47 | 39.47999 | -119.17199 | 42881 ft | 526 kts | 17° |
| 2026-05-04 00:48 | 39.54947 | -119.14197 | 42866 ft | 526 kts | 16° |
| 2026-05-04 00:48 | 39.61878 | -119.11141 | 42818 ft | 525 kts | 17° |
| 2026-05-04 00:49 | 39.68768 | -119.08118 | 42809 ft | 526 kts | 17° |
| 2026-05-04 00:49 | 39.75697 | -119.05067 | 42807 ft | 526 kts | 17° |
| 2026-05-04 00:50 | 39.82623 | -119.02009 | 42810 ft | 525 kts | 17° |
| 2026-05-04 00:50 | 39.89524 | -118.98961 | 42791 ft | 523 kts | 17° |
| 2026-05-04 00:51 | 39.96417 | -118.95902 | 42804 ft | 524 kts | 17° |
| 2026-05-04 00:51 | 40.03307 | -118.92846 | 42819 ft | 523 kts | 17° |
| 2026-05-04 00:52 | 40.10147 | -118.89801 | 42782 ft | 518 kts | 17° |
| 2026-05-04 00:52 | 40.16974 | -118.86756 | 42785 ft | 518 kts | 17° |
| 2026-05-04 00:53 | 40.23793 | -118.83708 | 42792 ft | 518 kts | 17° |
| 2026-05-04 00:53 | 40.30598 | -118.80662 | 42795 ft | 515 kts | 17° |
| 2026-05-04 00:54 | 40.37393 | -118.77610 | 42802 ft | 516 kts | 17° |
| 2026-05-04 00:54 | 40.44183 | -118.74557 | 42804 ft | 516 kts | 17° |
| 2026-05-04 00:55 | 40.50933 | -118.71514 | 42793 ft | 512 kts | 18° |
| 2026-05-04 00:55 | 40.57688 | -118.68462 | 42790 ft | 513 kts | 18° |
| 2026-05-04 00:56 | 40.64441 | -118.65405 | 42789 ft | 513 kts | 18° |
| 2026-05-04 00:56 | 40.71210 | -118.62334 | 42799 ft | 513 kts | 18° |
| 2026-05-04 00:57 | 40.77960 | -118.59265 | 42799 ft | 513 kts | 18° |
| 2026-05-04 00:57 | 40.84670 | -118.56208 | 42800 ft | 513 kts | 18° |
| 2026-05-04 00:58 | 40.91421 | -118.53126 | 42797 ft | 513 kts | 18° |
| 2026-05-04 00:58 | 40.98181 | -118.50033 | 42792 ft | 514 kts | 18° |
| 2026-05-04 00:59 | 41.04947 | -118.46930 | 42795 ft | 514 kts | 18° |
| 2026-05-04 00:59 | 41.11711 | -118.43822 | 42802 ft | 514 kts | 18° |
| 2026-05-04 01:00 | 41.18469 | -118.40709 | 42808 ft | 514 kts | 18° |
| 2026-05-04 01:00 | 41.25243 | -118.37581 | 42808 ft | 515 kts | 18° |
| 2026-05-04 01:01 | 41.32013 | -118.34450 | 42809 ft | 515 kts | 18° |
| 2026-05-04 01:01 | 41.38777 | -118.31313 | 42806 ft | 513 kts | 18° |
| 2026-05-04 01:02 | 41.45532 | -118.28175 | 42811 ft | 514 kts | 18° |
| 2026-05-04 01:02 | 41.52283 | -118.25031 | 42806 ft | 514 kts | 18° |
| 2026-05-04 01:03 | 41.59031 | -118.21882 | 42818 ft | 513 kts | 18° |
| 2026-05-04 01:03 | 41.65728 | -118.18749 | 42821 ft | 513 kts | 18° |
| 2026-05-04 01:04 | 41.72467 | -118.15590 | 42830 ft | 513 kts | 18° |
| 2026-05-04 01:04 | 41.79210 | -118.12422 | 42844 ft | 513 kts | 18° |
| 2026-05-04 01:05 | 41.85944 | -118.09252 | 42840 ft | 513 kts | 18° |
| 2026-05-04 01:05 | 41.92681 | -118.06072 | 42852 ft | 513 kts | 18° |
| 2026-05-04 01:06 | 41.99424 | -118.02883 | 42855 ft | 513 kts | 18° |
| 2026-05-04 01:06 | 42.06138 | -117.99700 | 42866 ft | 509 kts | 18° |
| 2026-05-04 01:07 | 42.12816 | -117.96527 | 42863 ft | 509 kts | 18° |
| 2026-05-04 01:07 | 42.19486 | -117.93350 | 42866 ft | 508 kts | 18° |
| 2026-05-04 01:07 | 42.22737 | -117.91798 | 42800 ft | 484 kts | 18° |
| 2026-05-04 01:08 | 42.25899 | -117.90290 | 41656 ft | 484 kts | 18° |
| 2026-05-04 01:08 | 42.29087 | -117.88770 | 40544 ft | 485 kts | 18° |
| 2026-05-04 01:08 | 42.32211 | -117.87275 | 39511 ft | 480 kts | 19° |
| 2026-05-04 01:08 | 42.35385 | -117.85751 | 38485 ft | 475 kts | 19° |
| 2026-05-04 01:09 | 42.38447 | -117.84284 | 37236 ft | 470 kts | 19° |
| 2026-05-04 01:09 | 42.41480 | -117.82677 | 36111 ft | 467 kts | 25° |
| 2026-05-04 01:09 | 42.44247 | -117.80448 | 35722 ft | 468 kts | 35° |
| 2026-05-04 01:09 | 42.46752 | -117.77614 | 35110 ft | 471 kts | 44° |
| 2026-05-04 01:10 | 42.48924 | -117.74298 | 34504 ft | 471 kts | 51° |
| 2026-05-04 01:10 | 42.50924 | -117.70748 | 33879 ft | 474 kts | 53° |
| 2026-05-04 01:10 | 42.52890 | -117.67154 | 33214 ft | 476 kts | 52° |
| 2026-05-04 01:10 | 42.55003 | -117.63676 | 32582 ft | 479 kts | 49° |
| 2026-05-04 01:11 | 42.57199 | -117.60263 | 31943 ft | 479 kts | 49° |
| 2026-05-04 01:11 | 42.59305 | -117.56791 | 31313 ft | 474 kts | 51° |
| 2026-05-04 01:11 | 42.61329 | -117.53282 | 30687 ft | 470 kts | 52° |
| 2026-05-04 01:11 | 42.63375 | -117.49841 | 30066 ft | 467 kts | 50° |
| 2026-05-04 01:12 | 42.65451 | -117.46468 | 29408 ft | 462 kts | 50° |
| 2026-05-04 01:12 | 42.67480 | -117.43120 | 28802 ft | 457 kts | 51° |
| 2026-05-04 01:12 | 42.69465 | -117.39759 | 28198 ft | 453 kts | 51° |
| 2026-05-04 01:12 | 42.71406 | -117.36483 | 27620 ft | 448 kts | 51° |
| 2026-05-04 01:13 | 42.73371 | -117.33219 | 27034 ft | 444 kts | 50° |
| 2026-05-04 01:13 | 42.75314 | -117.29987 | 26454 ft | 438 kts | 50° |
| 2026-05-04 01:13 | 42.77223 | -117.26774 | 25890 ft | 433 kts | 51° |
| 2026-05-04 01:13 | 42.79108 | -117.23592 | 25323 ft | 430 kts | 51° |
| 2026-05-04 01:14 | 42.80968 | -117.20440 | 24764 ft | 426 kts | 51° |
| 2026-05-04 01:14 | 42.82811 | -117.17307 | 24213 ft | 425 kts | 50° |
| 2026-05-04 01:14 | 42.84650 | -117.14182 | 23658 ft | 420 kts | 50° |
| 2026-05-04 01:14 | 42.86472 | -117.11087 | 23063 ft | 416 kts | 50° |
| 2026-05-04 01:15 | 42.88274 | -117.08019 | 22526 ft | 414 kts | 50° |
| 2026-05-04 01:15 | 42.90061 | -117.04973 | 21988 ft | 410 kts | 51° |
| 2026-05-04 01:15 | 42.91841 | -117.01938 | 21450 ft | 407 kts | 51° |
| 2026-05-04 01:15 | 42.93609 | -116.98921 | 20922 ft | 405 kts | 51° |
| 2026-05-04 01:16 | 42.95360 | -116.95927 | 20393 ft | 403 kts | 51° |
| 2026-05-04 01:16 | 42.97100 | -116.92951 | 19855 ft | 400 kts | 51° |
| 2026-05-04 01:16 | 42.98827 | -116.89991 | 19336 ft | 397 kts | 51° |
| 2026-05-04 01:16 | 43.00549 | -116.87040 | 18820 ft | 395 kts | 51° |
| 2026-05-04 01:17 | 43.02254 | -116.84114 | 18306 ft | 393 kts | 51° |
| 2026-05-04 01:17 | 43.03948 | -116.81204 | 17756 ft | 389 kts | 52° |
| 2026-05-04 01:17 | 43.05607 | -116.78361 | 17245 ft | 386 kts | 51° |
| 2026-05-04 01:17 | 43.07296 | -116.75520 | 16740 ft | 384 kts | 51° |
| 2026-05-04 01:18 | 43.08976 | -116.72701 | 16237 ft | 381 kts | 51° |
| 2026-05-04 01:18 | 43.10620 | -116.69913 | 15739 ft | 366 kts | 51° |
| 2026-05-04 01:18 | 43.12165 | -116.67283 | 15259 ft | 344 kts | 51° |
| 2026-05-04 01:18 | 43.13625 | -116.64808 | 14823 ft | 325 kts | 51° |
| 2026-05-04 01:19 | 43.15020 | -116.62441 | 14407 ft | 316 kts | 51° |
| 2026-05-04 01:19 | 43.16389 | -116.60116 | 13993 ft | 311 kts | 51° |
| 2026-05-04 01:19 | 43.17285 | -116.58589 | 13710 ft | 308 kts | 51° |
| 2026-05-04 01:19 | 43.18647 | -116.56360 | 13273 ft | 303 kts | 47° |
| 2026-05-04 01:20 | 43.20072 | -116.54234 | 12874 ft | 302 kts | 48° |
| 2026-05-04 01:20 | 43.21441 | -116.52057 | 12487 ft | 301 kts | 49° |
| 2026-05-04 01:20 | 43.22817 | -116.49907 | 12094 ft | 298 kts | 47° |
| 2026-05-04 01:20 | 43.24202 | -116.47799 | 11697 ft | 297 kts | 47° |
| 2026-05-04 01:21 | 43.25577 | -116.45698 | 11310 ft | 294 kts | 47° |
| 2026-05-04 01:21 | 43.26936 | -116.43598 | 10924 ft | 293 kts | 48° |
| 2026-05-04 01:21 | 43.28285 | -116.41513 | 10543 ft | 291 kts | 48° |
| 2026-05-04 01:21 | 43.29629 | -116.39441 | 10153 ft | 289 kts | 48° |
| 2026-05-04 01:22 | 43.30963 | -116.37384 | 9772 ft | 288 kts | 48° |
| 2026-05-04 01:22 | 43.32287 | -116.35339 | 9379 ft | 285 kts | 48° |
| 2026-05-04 01:22 | 43.33600 | -116.33309 | 8999 ft | 284 kts | 48° |
| 2026-05-04 01:22 | 43.34898 | -116.31301 | 8630 ft | 280 kts | 48° |
| 2026-05-04 01:23 | 43.36192 | -116.29298 | 8255 ft | 279 kts | 48° |
| 2026-05-04 01:23 | 43.37471 | -116.27318 | 7890 ft | 276 kts | 47° |
| 2026-05-04 01:23 | 43.38717 | -116.25386 | 7533 ft | 263 kts | 47° |
| 2026-05-04 01:23 | 43.39906 | -116.23543 | 7203 ft | 252 kts | 47° |
| 2026-05-04 01:24 | 43.41049 | -116.21771 | 6875 ft | 243 kts | 47° |
| 2026-05-04 01:24 | 43.42197 | -116.20165 | 6565 ft | 231 kts | 44° |
| 2026-05-04 01:24 | 43.43311 | -116.18556 | 6266 ft | 232 kts | 45° |
| 2026-05-04 01:24 | 43.44412 | -116.16947 | 5957 ft | 230 kts | 44° |
| 2026-05-04 01:25 | 43.45502 | -116.15392 | 5658 ft | 219 kts | 44° |
| 2026-05-04 01:25 | 43.46525 | -116.13938 | 5365 ft | 204 kts | 44° |
| 2026-05-04 01:25 | 43.47488 | -116.12598 | 5106 ft | 194 kts | 40° |
| 2026-05-04 01:25 | 43.48591 | -116.11693 | 4878 ft | 181 kts | 19° |
| 2026-05-04 01:26 | 43.49822 | -116.11320 | 4634 ft | 179 kts | 0° |
| 2026-05-04 01:26 | 43.51012 | -116.11475 | 4393 ft | 156 kts | 344° |
| 2026-05-04 01:26 | 43.51930 | -116.11969 | 4202 ft | 131 kts | 329° |
| 2026-05-04 01:26 | 43.52686 | -116.12689 | 4046 ft | 132 kts | 320° |
| 2026-05-04 01:27 | 43.53303 | -116.13635 | 3858 ft | 133 kts | 306° |
| 2026-05-04 01:27 | 43.53741 | -116.14733 | 3694 ft | 129 kts | 296° |
| 2026-05-04 01:27 | 43.54123 | -116.15856 | 3535 ft | 131 kts | 297° |
| 2026-05-04 01:27 | 43.54520 | -116.17003 | 3460 ft | 131 kts | 295° |
| 2026-05-04 01:28 | 43.54899 | -116.18145 | 3396 ft | 133 kts | 295° |
| 2026-05-04 01:28 | 43.55304 | -116.19320 | 3235 ft | 140 kts | 295° |
| 2026-05-04 01:28 | 43.55723 | -116.20505 | 2995 ft | 131 kts | 297° |
| 2026-05-04 01:28 | 43.56092 | -116.21586 | 2885 ft | 115 kts | 298° |
| 2026-05-04 01:29 | 43.56366 | -116.22404 | 2877 ft | 65 kts | 296° |
| 2026-05-04 01:29 | 43.56508 | -116.22813 | 2880 ft | 30 kts | 295° |
| 2026-05-04 01:29 | 43.56582 | -116.23027 | 2880 ft | 18 kts | 297° |
| 2026-05-04 01:29 | 43.56636 | -116.23173 | 2878 ft | 11 kts | 319° |
| 2026-05-04 01:30 | 43.56700 | -116.23158 | 2878 ft | 10 kts | 28° |
| 2026-05-04 01:30 | 43.56767 | -116.23114 | 2877 ft | 14 kts | 25° |
| 2026-05-04 01:30 | 43.56869 | -116.23050 | 2876 ft | 13 kts | 24° |
| 2026-05-04 01:30 | 43.56921 | -116.23046 | 2877 ft | 6 kts | 306° |
| 2026-05-04 01:31 | 43.56947 | -116.23079 | 2877 ft | 5 kts | 1° |
| 2026-05-04 01:31 | 43.57000 | -116.23068 | 2878 ft | 9 kts | 8° |
| 2026-05-04 01:31 | 43.57036 | -116.23024 | 2878 ft | 8 kts | 82° |
| 2026-05-04 01:31 | 43.57017 | -116.22974 | 2878 ft | 7 kts | 192° |
| 2026-05-04 01:32 | 43.57000 | -116.23023 | 2878 ft | 2 kts | 323° |
| 2026-05-04 01:32 | 43.57004 | -116.23022 | 2878 ft | 0 kts | 4° |